createdAt,value
2022-10-06T00:01:05.226Z,4.80
2022-10-06T00:03:31.798Z,5.00
2022-10-06T00:06:02.141Z,5.00
2022-10-06T00:08:31.089Z,5.30
2022-10-06T00:10:57.796Z,5.30
2022-10-06T00:13:24.817Z,5.40
2022-10-06T00:15:51.669Z,5.80
2022-10-06T00:18:18.278Z,6.20
2022-10-06T00:20:44.735Z,6.70
2022-10-06T00:23:11.527Z,5.60
2022-10-06T00:25:38.823Z,4.50
2022-10-06T00:28:05.676Z,4.80
2022-10-06T00:30:32.406Z,4.60
2022-10-06T00:33:00.879Z,4.10
2022-10-06T00:35:33.842Z,4.10
2022-10-06T00:38:01.110Z,4.50
2022-10-06T00:40:27.661Z,4.50
2022-10-06T00:43:01.332Z,5.00
2022-10-06T00:45:39.664Z,4.90
2022-10-06T00:48:10.773Z,4.00
2022-10-06T00:50:37.929Z,4.90
2022-10-06T00:53:04.451Z,4.30
2022-10-06T00:55:31.220Z,4.60
2022-10-06T00:57:57.852Z,6.30
2022-10-06T01:00:24.358Z,6.80
2022-10-06T01:02:57.504Z,6.00
2022-10-06T01:05:27.573Z,6.60
2022-10-06T01:07:54.128Z,7.40
2022-10-06T01:10:21.034Z,6.40
2022-10-06T01:12:48.234Z,7.20
2022-10-06T01:15:15.675Z,6.80
2022-10-06T01:17:44.500Z,7.50
2022-10-06T01:20:12.991Z,8.70
2022-10-06T01:22:43.464Z,10.80
2022-10-06T01:25:11.674Z,9.30
2022-10-06T01:27:38.966Z,6.70
2022-10-06T01:30:09.656Z,8.50
2022-10-06T01:32:37.781Z,7.10
2022-10-06T01:35:05.586Z,5.30
2022-10-06T01:37:32.106Z,7.50
2022-10-06T01:39:59.074Z,10.10
2022-10-06T01:42:25.779Z,8.90
2022-10-06T01:44:52.510Z,10.20
2022-10-06T01:47:19.129Z,9.10
2022-10-06T01:49:45.587Z,8.10
2022-10-06T01:52:12.474Z,7.70
2022-10-06T01:54:39.247Z,7.90
2022-10-06T01:57:09.098Z,5.60
2022-10-06T01:59:35.674Z,8.10
2022-10-06T02:02:02.457Z,7.50
2022-10-06T02:04:29.063Z,9.20
2022-10-06T02:06:55.715Z,11.60
2022-10-06T02:09:23.559Z,10.70
2022-10-06T02:11:50.182Z,11.70
2022-10-06T02:14:18.140Z,10.60
2022-10-06T02:16:45.370Z,9.70
2022-10-06T02:19:11.874Z,10.30
2022-10-06T02:21:38.957Z,11.60
2022-10-06T02:24:05.789Z,9.90
2022-10-06T02:26:32.547Z,12.80
2022-10-06T02:28:59.277Z,16.50
2022-10-06T02:31:26.086Z,11.20
2022-10-06T02:33:52.852Z,11.50
2022-10-06T02:36:19.581Z,11.90
2022-10-06T02:38:46.353Z,9.00
2022-10-06T02:41:12.806Z,7.10
2022-10-06T02:43:39.606Z,8.00
2022-10-06T02:46:08.442Z,10.70
2022-10-06T02:48:35.077Z,9.90
2022-10-06T02:51:09.771Z,10.80
2022-10-06T02:53:36.547Z,10.90
2022-10-06T02:56:05.497Z,12.40
2022-10-06T02:58:32.666Z,11.80
2022-10-06T03:03:57.154Z,15.10
2022-10-06T03:06:25.293Z,13.70
2022-10-06T03:08:56.417Z,14.50
2022-10-06T03:11:30.232Z,14.40
2022-10-06T03:13:57.210Z,12.60
2022-10-06T03:16:25.494Z,13.00
2022-10-06T03:18:54.196Z,12.30
2022-10-06T03:21:22.527Z,13.30
2022-10-06T03:23:49.834Z,9.70
2022-10-06T03:26:17.979Z,9.80
2022-10-06T03:28:44.999Z,9.90
2022-10-06T03:31:11.742Z,9.20
2022-10-06T03:33:38.566Z,10.30
2022-10-06T03:36:09.699Z,10.60
2022-10-06T03:38:36.461Z,10.80
2022-10-06T03:41:06.754Z,13.80
2022-10-06T03:43:33.882Z,11.20
2022-10-06T03:46:03.524Z,15.00
2022-10-06T03:48:31.838Z,14.20
2022-10-06T03:51:19.505Z,13.60
2022-10-06T03:53:47.563Z,11.30
2022-10-06T03:56:16.546Z,12.30
2022-10-06T03:58:44.607Z,14.20
2022-10-06T04:01:14.332Z,14.60
2022-10-06T04:03:40.809Z,12.10
2022-10-06T04:06:09.737Z,12.50
2022-10-06T04:08:36.953Z,11.30
2022-10-06T04:11:16.306Z,9.20
2022-10-06T04:13:43.574Z,8.00
2022-10-06T04:16:18.369Z,7.30
2022-10-06T04:18:46.273Z,7.00
2022-10-06T04:21:13.084Z,6.30
2022-10-06T04:23:39.638Z,8.80
2022-10-06T04:26:09.941Z,12.30
2022-10-06T04:28:38.247Z,12.20
2022-10-06T04:31:07.112Z,14.10
2022-10-06T04:33:34.558Z,16.00
2022-10-06T04:36:03.226Z,24.70
2022-10-06T04:38:32.195Z,18.30
2022-10-06T04:41:13.025Z,18.80
2022-10-06T04:43:39.562Z,18.20
2022-10-06T04:46:23.973Z,12.60
2022-10-06T04:48:53.925Z,13.10
2022-10-06T04:51:21.443Z,14.10
2022-10-06T04:53:48.385Z,13.50
2022-10-06T04:56:29.789Z,14.20
2022-10-06T04:58:56.456Z,13.30
2022-10-06T05:01:24.706Z,11.70
2022-10-06T05:03:53.419Z,12.40
2022-10-06T05:06:27.766Z,10.00
2022-10-06T05:08:56.171Z,12.20
2022-10-06T05:11:25.826Z,11.30
2022-10-06T05:13:54.960Z,10.60
2022-10-06T05:16:21.867Z,11.70
2022-10-06T05:18:48.386Z,10.60
2022-10-06T05:21:19.640Z,9.90
2022-10-06T05:23:46.400Z,10.00
2022-10-06T05:26:14.509Z,12.50
2022-10-06T05:28:41.267Z,10.60
2022-10-06T05:31:11.670Z,14.40
2022-10-06T05:33:38.344Z,12.80
2022-10-06T05:36:06.502Z,9.80
2022-10-06T05:38:33.550Z,8.40
2022-10-06T05:41:13.679Z,7.30
2022-10-06T05:43:40.664Z,6.80
2022-10-06T05:46:09.232Z,5.40
2022-10-06T05:48:35.985Z,4.90
2022-10-06T05:51:03.890Z,4.50
2022-10-06T05:53:30.899Z,4.20
2022-10-06T05:56:05.563Z,4.60
2022-10-06T05:58:32.904Z,4.40
2022-10-06T06:01:29.771Z,3.90
2022-10-06T06:04:00.283Z,4.90
2022-10-06T06:06:34.596Z,5.60
2022-10-06T06:09:08.953Z,5.20
2022-10-06T06:11:37.473Z,6.00
2022-10-06T06:14:08.757Z,5.00
2022-10-06T06:16:37.110Z,4.70
2022-10-06T06:19:04.037Z,4.80
2022-10-06T06:21:30.663Z,4.30
2022-10-06T06:23:57.288Z,5.10
2022-10-06T06:26:28.882Z,6.30
2022-10-06T06:28:57.155Z,5.20
2022-10-06T06:31:27.104Z,4.90
2022-10-06T06:33:54.987Z,7.10
2022-10-06T06:36:25.939Z,6.40
2022-10-06T06:38:56.476Z,4.50
2022-10-06T06:41:24.363Z,4.10
2022-10-06T06:43:51.209Z,3.80
2022-10-06T06:46:18.793Z,5.30
2022-10-06T06:48:47.225Z,7.60
2022-10-06T06:51:13.877Z,7.90
2022-10-06T06:53:40.941Z,8.30
2022-10-06T06:56:08.599Z,7.60
2022-10-06T06:58:35.641Z,6.90
2022-10-06T07:01:11.203Z,4.60
2022-10-06T07:03:56.479Z,5.10
2022-10-06T07:06:28.095Z,4.20
2022-10-06T07:08:55.350Z,5.00
2022-10-06T07:11:23.503Z,5.50
2022-10-06T07:13:54.913Z,5.40
2022-10-06T07:16:40.781Z,4.60
2022-10-06T07:19:26.232Z,4.60
2022-10-06T07:22:11.816Z,6.50
2022-10-06T07:24:57.500Z,7.60
2022-10-06T07:27:24.263Z,8.20
2022-10-06T07:29:54.469Z,4.90
2022-10-06T07:32:22.956Z,5.50
2022-10-06T07:34:50.141Z,8.30
2022-10-06T07:37:18.034Z,5.60
2022-10-06T07:39:45.203Z,9.00
2022-10-06T07:42:15.231Z,4.60
2022-10-06T07:44:42.270Z,4.50
2022-10-06T07:47:09.320Z,4.60
2022-10-06T07:49:35.939Z,6.90
2022-10-06T07:52:05.255Z,5.20
2022-10-06T07:54:32.299Z,4.30
2022-10-06T07:56:58.763Z,3.80
2022-10-06T07:59:25.277Z,3.90
2022-10-06T08:01:53.217Z,4.60
2022-10-06T08:04:19.737Z,4.50
2022-10-06T08:06:47.727Z,4.60
2022-10-06T08:09:14.418Z,5.00
2022-10-06T08:11:41.035Z,4.50
2022-10-06T08:14:07.482Z,3.70
2022-10-06T08:16:37.550Z,3.20
2022-10-06T08:19:05.228Z,3.90
2022-10-06T08:21:34.380Z,3.60
2022-10-06T08:24:02.251Z,3.40
2022-10-06T08:26:29.253Z,3.20
2022-10-06T08:29:03.280Z,3.50
2022-10-06T08:31:30.474Z,3.30
2022-10-06T08:33:57.313Z,3.70
2022-10-06T08:36:30.984Z,3.70
2022-10-06T08:38:58.920Z,4.00
2022-10-06T08:41:44.899Z,4.40
2022-10-06T08:44:18.934Z,3.90
2022-10-06T08:47:00.621Z,3.10
2022-10-06T08:49:37.113Z,4.00
2022-10-06T08:52:15.777Z,3.40
2022-10-06T08:54:49.388Z,3.90
2022-10-06T08:57:27.211Z,3.30
2022-10-06T08:59:54.291Z,3.00
2022-10-06T09:02:39.221Z,3.50
2022-10-06T09:05:06.624Z,3.00
2022-10-06T09:07:42.262Z,3.00
2022-10-06T09:10:49.353Z,3.00
2022-10-06T09:13:44.438Z,2.70
2022-10-06T09:16:14.674Z,2.60
2022-10-06T09:21:36.507Z,3.10
2022-10-06T09:24:07.230Z,2.80
2022-10-06T09:26:33.890Z,2.80
2022-10-06T09:29:00.782Z,3.10
2022-10-06T09:31:29.092Z,2.70
2022-10-06T09:34:04.780Z,2.90
2022-10-06T09:36:32.005Z,2.90
2022-10-06T09:38:59.466Z,2.50
2022-10-06T09:41:29.908Z,2.70
2022-10-06T09:43:58.810Z,3.10
2022-10-06T09:46:31.590Z,3.10
2022-10-06T09:51:38.317Z,2.90
2022-10-06T09:54:14.330Z,2.80
2022-10-06T09:56:42.159Z,2.60
2022-10-06T09:59:22.642Z,8.90
2022-10-06T10:02:00.099Z,5.70
2022-10-06T10:04:33.308Z,5.60
2022-10-06T10:07:26.753Z,4.60
2022-10-06T10:09:54.001Z,4.40
2022-10-06T10:12:33.502Z,8.60
2022-10-06T10:15:23.828Z,127.50
2022-10-06T10:17:51.484Z,145.10
2022-10-06T10:20:36.354Z,306.50
2022-10-06T10:23:31.630Z,54.30
2022-10-06T10:26:01.738Z,12.20
2022-10-06T10:28:40.373Z,5.70
2022-10-06T10:31:20.403Z,3.10
2022-10-06T10:34:23.136Z,2.90
2022-10-06T10:36:52.114Z,2.60
2022-10-06T10:39:27.314Z,2.50
2022-10-06T10:41:53.856Z,2.70
2022-10-06T10:44:31.118Z,2.40
2022-10-06T10:47:06.180Z,2.40
2022-10-06T10:49:33.004Z,2.70
2022-10-06T10:52:10.009Z,2.70
2022-10-06T10:54:44.793Z,2.60
2022-10-06T10:57:14.008Z,2.70
2022-10-06T10:59:58.691Z,2.60
2022-10-06T11:02:25.391Z,2.50
2022-10-06T11:04:58.227Z,2.90
2022-10-06T11:07:39.258Z,3.40
2022-10-06T11:10:23.177Z,3.10
2022-10-06T11:13:15.003Z,2.90
2022-10-06T11:15:46.663Z,2.80
2022-10-06T11:18:35.162Z,3.60
2022-10-06T11:21:34.656Z,3.40
2022-10-06T11:24:06.854Z,3.20
2022-10-06T11:26:41.173Z,4.50
2022-10-06T11:29:35.246Z,3.90
2022-10-06T11:32:41.784Z,3.50
2022-10-06T11:35:19.692Z,3.30
2022-10-06T11:38:00.314Z,3.50
2022-10-06T11:41:09.758Z,9.60
2022-10-06T11:43:46.845Z,4.20
2022-10-06T11:46:13.330Z,4.40
2022-10-06T11:48:40.580Z,3.50
2022-10-06T11:51:25.432Z,3.20
2022-10-06T11:53:52.435Z,3.10
2022-10-06T11:56:19.363Z,3.10
2022-10-06T11:58:52.060Z,2.90
2022-10-06T12:01:30.778Z,2.90
2022-10-06T12:04:09.667Z,2.60
2022-10-06T12:06:42.501Z,3.30
2022-10-06T12:09:28.775Z,6.30
2022-10-06T12:12:01.758Z,3.50
2022-10-06T12:17:36.088Z,2.90
2022-10-06T12:20:21.238Z,2.60
2022-10-06T12:22:50.858Z,2.70
2022-10-06T12:25:49.580Z,2.50
2022-10-06T12:28:35.856Z,2.50
2022-10-06T12:31:21.396Z,2.80
2022-10-06T12:33:48.416Z,3.00
2022-10-06T12:36:28.694Z,3.10
2022-10-06T12:39:05.183Z,2.80
2022-10-06T12:41:54.664Z,2.80
2022-10-06T12:44:23.096Z,2.80
2022-10-06T12:46:49.691Z,2.30
2022-10-06T12:50:00.415Z,2.90
2022-10-06T12:52:34.576Z,2.30
2022-10-06T12:55:29.068Z,2.50
2022-10-06T12:57:55.957Z,2.40
2022-10-06T13:00:39.772Z,2.60
2022-10-06T13:03:08.992Z,2.30
2022-10-06T13:05:35.807Z,2.40
2022-10-06T13:08:03.340Z,2.40
2022-10-06T13:10:30.137Z,2.60
2022-10-06T13:12:58.138Z,6.70
2022-10-06T13:15:33.422Z,5.20
2022-10-06T13:18:03.739Z,2.70
2022-10-06T13:20:35.625Z,2.50
2022-10-06T13:23:17.225Z,2.30
2022-10-06T13:25:48.281Z,2.40
2022-10-06T13:28:27.483Z,2.50
2022-10-06T13:33:36.252Z,2.60
2022-10-06T13:36:03.051Z,2.60
2022-10-06T13:38:34.879Z,2.40
2022-10-06T13:41:05.455Z,2.40
2022-10-06T13:43:35.074Z,2.40
2022-10-06T13:46:08.701Z,3.00
2022-10-06T13:48:35.208Z,2.70
2022-10-06T13:51:03.519Z,2.90
2022-10-06T13:53:31.413Z,2.80
2022-10-06T13:55:59.127Z,3.00
2022-10-06T13:58:27.696Z,2.70
2022-10-06T14:00:57.827Z,8.40
2022-10-06T14:03:29.000Z,4.70
2022-10-06T14:06:09.321Z,10.80
2022-10-06T14:08:36.127Z,3.50
2022-10-06T14:11:04.944Z,3.30
2022-10-06T14:13:35.029Z,5.80
2022-10-06T14:16:06.432Z,3.10
2022-10-06T14:18:36.602Z,3.60
2022-10-06T14:21:19.519Z,3.40
2022-10-06T14:23:50.810Z,3.30
2022-10-06T14:26:19.105Z,3.20
2022-10-06T14:28:51.941Z,3.40
2022-10-06T14:31:22.207Z,3.70
2022-10-06T14:33:51.462Z,3.60
2022-10-06T14:36:28.940Z,3.20
2022-10-06T14:38:56.668Z,3.50
2022-10-06T14:41:55.505Z,3.50
2022-10-06T14:44:22.170Z,4.00
2022-10-06T14:46:48.964Z,3.90
2022-10-06T14:49:16.061Z,3.40
2022-10-06T14:51:43.403Z,4.10
2022-10-06T14:54:10.609Z,3.70
2022-10-06T14:56:39.158Z,3.70
2022-10-06T14:59:07.060Z,3.50
2022-10-06T15:01:34.685Z,3.50
2022-10-06T15:04:03.204Z,3.70
2022-10-06T15:06:48.212Z,4.00
2022-10-06T15:09:15.120Z,3.70
2022-10-06T15:11:41.628Z,3.80
2022-10-06T15:14:08.709Z,4.00
2022-10-06T15:16:37.330Z,4.20
2022-10-06T15:19:05.649Z,3.50
2022-10-06T15:21:33.239Z,3.70
2022-10-06T15:24:02.159Z,3.70
2022-10-06T15:26:47.627Z,3.50
2022-10-06T15:29:14.775Z,3.30
2022-10-06T15:31:43.255Z,3.10
2022-10-06T15:34:12.209Z,3.30
2022-10-06T15:36:42.679Z,4.40
2022-10-06T15:39:13.701Z,3.70
2022-10-06T15:41:41.270Z,3.60
2022-10-06T15:44:09.161Z,3.50
2022-10-06T15:46:39.989Z,3.60
2022-10-06T15:49:11.143Z,3.70
2022-10-06T15:51:57.279Z,3.70
2022-10-06T15:54:27.817Z,3.50
2022-10-06T15:56:59.111Z,4.40
2022-10-06T15:59:26.182Z,4.10
2022-10-06T16:01:57.542Z,3.70
2022-10-06T16:04:47.641Z,4.30
2022-10-06T16:07:18.438Z,4.00
2022-10-06T16:09:46.576Z,4.40
2022-10-06T16:12:16.375Z,5.90
2022-10-06T16:14:43.236Z,6.60
2022-10-06T16:17:10.142Z,7.50
2022-10-06T16:19:37.163Z,7.70
2022-10-06T16:22:04.596Z,8.60
2022-10-06T16:24:31.416Z,8.30
2022-10-06T16:26:59.804Z,8.10
2022-10-06T16:29:27.131Z,10.30
2022-10-06T16:31:53.657Z,9.80
2022-10-06T16:34:20.309Z,8.20
2022-10-06T16:36:47.151Z,8.00
2022-10-06T16:39:15.206Z,7.00
2022-10-06T16:41:41.794Z,7.60
2022-10-06T16:44:08.585Z,7.50
2022-10-06T16:46:35.114Z,8.40
2022-10-06T16:49:02.360Z,10.30
2022-10-06T16:51:35.960Z,11.00
2022-10-06T16:54:07.079Z,10.50
2022-10-06T16:56:40.200Z,9.50
2022-10-06T16:59:12.023Z,19.10
2022-10-06T17:01:38.823Z,78.30
2022-10-06T17:04:16.884Z,48.80
2022-10-06T17:06:57.053Z,38.10
2022-10-06T17:09:25.253Z,39.10
2022-10-06T17:11:56.075Z,25.10
2022-10-06T17:14:22.912Z,16.60
2022-10-06T17:16:51.133Z,15.20
2022-10-06T17:19:18.985Z,15.50
2022-10-06T17:21:48.101Z,15.80
2022-10-06T17:24:18.174Z,15.30
2022-10-06T17:26:46.728Z,18.60
2022-10-06T17:29:16.065Z,18.20
2022-10-06T17:31:43.316Z,16.00
2022-10-06T17:34:12.023Z,17.10
2022-10-06T17:36:39.491Z,19.50
2022-10-06T17:39:06.892Z,20.70
2022-10-06T17:41:35.262Z,30.90
2022-10-06T17:44:03.923Z,22.90
2022-10-06T17:46:41.272Z,25.40
2022-10-06T17:49:09.045Z,33.80
2022-10-06T17:51:37.278Z,40.60
2022-10-06T17:54:05.332Z,46.20
2022-10-06T17:56:35.773Z,48.60
2022-10-06T17:59:07.591Z,56.10
2022-10-06T18:01:34.854Z,54.60
2022-10-06T18:04:03.286Z,46.90
2022-10-06T18:06:30.913Z,43.80
2022-10-06T18:09:00.815Z,37.40
2022-10-06T18:11:35.999Z,31.50
2022-10-06T18:14:07.662Z,22.60
2022-10-06T18:16:39.834Z,21.80
2022-10-06T18:19:11.079Z,22.70
2022-10-06T18:21:41.163Z,23.30
2022-10-06T18:24:10.470Z,32.20
2022-10-06T18:26:38.349Z,28.50
2022-10-06T18:29:05.795Z,36.80
2022-10-06T18:31:32.599Z,36.70
2022-10-06T18:36:46.773Z,20.20
2022-10-06T18:39:13.484Z,36.50
2022-10-06T18:41:41.004Z,31.20
2022-10-06T18:44:08.413Z,23.10
2022-10-06T18:46:54.098Z,19.70
2022-10-06T18:49:22.438Z,18.40
2022-10-06T18:51:57.945Z,18.40
2022-10-06T18:54:31.973Z,15.70
2022-10-06T18:56:58.499Z,17.50
2022-10-06T18:59:31.379Z,20.20
2022-10-06T19:02:00.561Z,20.10
2022-10-06T19:04:27.305Z,20.10
2022-10-06T19:06:54.619Z,19.60
2022-10-06T19:09:23.461Z,20.30
2022-10-06T19:11:58.034Z,25.10
2022-10-06T19:14:31.005Z,21.50
2022-10-06T19:16:59.698Z,21.00
2022-10-06T19:19:27.276Z,30.50
2022-10-06T19:22:01.488Z,34.90
2022-10-06T19:24:41.490Z,32.20
2022-10-06T19:27:13.574Z,39.00
2022-10-06T19:29:44.153Z,35.80
2022-10-06T19:32:10.658Z,40.30
2022-10-06T19:34:37.525Z,44.60
2022-10-06T19:37:04.777Z,61.00
2022-10-06T19:39:32.152Z,46.40
2022-10-06T19:42:17.544Z,47.80
2022-10-06T19:44:44.658Z,42.40
2022-10-06T19:47:13.088Z,36.10
2022-10-06T19:49:39.662Z,32.20
2022-10-06T19:52:08.237Z,34.30
2022-10-06T19:54:35.229Z,48.10
2022-10-06T19:57:05.454Z,60.70
2022-10-06T19:59:32.805Z,71.30
2022-10-06T20:01:59.287Z,58.20
2022-10-06T20:04:26.487Z,56.10
2022-10-06T20:06:53.090Z,53.60
2022-10-06T20:09:21.861Z,52.70
2022-10-06T20:11:49.679Z,53.70
2022-10-06T20:14:21.312Z,52.60
2022-10-06T20:16:49.293Z,52.40
2022-10-06T20:19:16.668Z,52.40
2022-10-06T20:21:43.259Z,50.30
2022-10-06T20:24:22.958Z,53.60
2022-10-06T20:26:50.740Z,50.30
2022-10-06T20:29:22.907Z,48.10
2022-10-06T20:31:54.200Z,49.90
2022-10-06T20:34:22.359Z,50.60
2022-10-06T20:36:53.230Z,48.00
2022-10-06T20:39:41.199Z,48.30
2022-10-06T20:42:12.238Z,48.10
2022-10-06T20:47:09.599Z,44.90
2022-10-06T20:49:36.309Z,46.50
2022-10-06T20:52:03.472Z,48.10
2022-10-06T20:54:35.950Z,51.30
2022-10-06T20:57:04.154Z,49.90
2022-10-06T20:59:30.670Z,52.40
2022-10-06T21:01:59.911Z,50.70
2022-10-06T21:04:30.104Z,60.00
2022-10-06T21:06:57.247Z,54.70
2022-10-06T21:09:24.697Z,55.10
2022-10-06T21:11:51.338Z,55.80
2022-10-06T21:14:18.310Z,52.70
2022-10-06T21:16:45.718Z,55.40
2022-10-06T21:19:16.738Z,66.80
2022-10-06T21:21:45.734Z,60.50
2022-10-06T21:24:12.464Z,55.00
2022-10-06T21:26:39.189Z,52.50
2022-10-06T21:29:05.686Z,49.20
2022-10-06T21:31:33.521Z,49.20
2022-10-06T21:34:01.364Z,44.10
2022-10-06T21:36:29.214Z,39.40
2022-10-06T21:38:57.244Z,40.30
2022-10-06T21:41:40.463Z,41.10
2022-10-06T21:44:08.884Z,67.80
2022-10-06T21:46:51.225Z,53.40
2022-10-06T21:49:19.428Z,65.50
2022-10-06T21:51:47.193Z,69.40
2022-10-06T21:54:13.973Z,47.20
2022-10-06T21:56:40.750Z,46.30
2022-10-06T21:59:07.488Z,44.80
2022-10-06T22:01:39.124Z,49.40
2022-10-06T22:04:06.513Z,51.80
2022-10-06T22:06:34.413Z,48.90
2022-10-06T22:09:01.025Z,42.20
2022-10-06T22:11:29.180Z,37.30
2022-10-06T22:13:57.340Z,40.50
2022-10-06T22:16:25.525Z,45.70
2022-10-06T22:18:52.597Z,55.60
2022-10-06T22:21:30.249Z,54.20
2022-10-06T22:24:01.424Z,45.90
2022-10-06T22:26:28.658Z,37.60
2022-10-06T22:28:56.072Z,32.10
2022-10-06T22:31:26.035Z,30.20
2022-10-06T22:33:54.668Z,29.90
2022-10-06T22:36:21.149Z,28.00
2022-10-06T22:38:47.860Z,30.40
2022-10-06T22:41:14.423Z,29.80
2022-10-06T22:43:40.938Z,28.60
2022-10-06T22:46:07.913Z,29.60
2022-10-06T22:48:34.494Z,26.50
2022-10-06T22:51:01.100Z,27.80
2022-10-06T22:53:30.439Z,28.50
2022-10-06T22:55:57.744Z,33.80
2022-10-06T22:58:24.678Z,34.70
2022-10-06T23:00:51.338Z,35.30
2022-10-06T23:03:18.224Z,35.10
2022-10-06T23:05:58.194Z,35.40
2022-10-06T23:08:25.092Z,32.10
2022-10-06T23:10:51.940Z,32.50
2022-10-06T23:13:18.639Z,34.40
2022-10-06T23:15:45.179Z,39.30
2022-10-06T23:18:11.821Z,33.60
2022-10-06T23:20:38.638Z,33.40
2022-10-06T23:23:05.229Z,32.30
2022-10-06T23:25:31.971Z,33.80
2022-10-06T23:27:58.825Z,35.70
2022-10-06T23:30:25.667Z,37.30
2022-10-06T23:32:52.187Z,36.90
2022-10-06T23:35:18.967Z,31.50
2022-10-06T23:37:45.838Z,31.20
2022-10-06T23:40:12.828Z,30.50
2022-10-06T23:42:39.572Z,30.50
2022-10-06T23:45:07.711Z,32.40
2022-10-06T23:47:34.275Z,33.20
2022-10-06T23:50:01.146Z,33.50
2022-10-06T23:52:27.721Z,31.70
2022-10-06T23:54:54.147Z,32.80
2022-10-06T23:57:20.899Z,34.00
2022-10-06T23:59:47.692Z,30.40
